Time;durP1;ratioP1;P1;durP2;ratioP2;P2;SDS_P1;SDS_P2;PMS_P1;PMS_P2;Temp;Humidity;BMP_temperature;BMP_pressure;BME280_temperature;BME280_humidity;BME280_pressure;Samples;Min_cycle;Max_cycle;Signal;HPM_P1;HPM_P2
2022/01/14 04:48:39;;;;;;;25.90;12.02;;;;;;;1.00;92.04;101536.94;6664939;26;33440;-80
2022/01/14 04:51:41;;;;;;;28.15;13.20;;;;;;;1.11;91.69;101530.97;6676551;26;33987;-80
2022/01/14 04:54:44;;;;;;;24.02;12.43;;;;;;;1.08;91.84;101541.78;6669488;26;33773;-80
2022/01/14 04:57:48;;;;;;;30.65;12.73;;;;;;;0.97;92.40;101539.75;6665015;26;34213;-81
2022/01/14 05:00:51;;;;;;;27.42;13.20;;;;;;;0.95;92.83;101538.97;6661384;26;33488;-80
2022/01/14 05:03:56;;;;;;;23.87;12.25;;;;;;;1.05;92.51;101534.87;6662127;26;33152;-81
2022/01/14 05:07:02;;;;;;;25.02;13.05;;;;;;;1.06;92.57;101525.13;6663370;26;33673;-81
2022/01/14 05:13:09;;;;;;;24.45;13.02;;;;;;;1.13;92.16;101511.37;6662516;26;34293;-80
2022/01/14 05:16:12;;;;;;;28.40;13.55;;;;;;;1.16;92.46;101510.38;6662146;26;33853;-81
2022/01/14 05:19:15;;;;;;;26.15;13.25;;;;;;;1.25;91.89;101501.00;6662119;26;33622;-79
2022/01/14 05:22:17;;;;;;;26.37;12.55;;;;;;;1.23;91.99;101506.44;6662967;26;34801;-79
2022/01/14 05:25:20;;;;;;;25.27;12.98;;;;;;;1.30;91.71;101509.56;6663266;26;33625;-79
2022/01/14 05:28:23;;;;;;;24.00;12.07;;;;;;;1.30;91.79;101504.25;6663760;26;33731;-79
2022/01/14 05:31:47;;;;;;;23.90;12.15;;;;;;;1.29;91.96;101505.22;6663116;26;33382;-78
2022/01/14 05:34:50;;;;;;;25.48;12.48;;;;;;;1.35;91.86;101518.13;6662461;26;34379;-80
2022/01/14 05:37:54;;;;;;;23.60;11.20;;;;;;;1.26;92.16;101513.34;6661253;26;34173;-79
2022/01/14 05:40:57;;;;;;;25.50;11.95;;;;;;;1.35;92.16;101521.63;6664023;26;33385;-79
2022/01/14 05:44:01;;;;;;;24.20;12.70;;;;;;;1.33;91.85;101517.34;6669068;26;33480;-79
2022/01/14 05:47:05;;;;;;;25.85;12.90;;;;;;;1.34;91.99;101516.38;6669292;26;33234;-79
2022/01/14 05:50:14;;;;;;;28.02;12.98;;;;;;;1.33;91.99;101518.19;6671792;26;34458;-79
2022/01/14 05:53:17;;;;;;;23.45;12.00;;;;;;;1.29;92.28;101516.69;6673310;26;34621;-79
2022/01/14 05:56:20;;;;;;;23.80;11.57;;;;;;;1.29;92.28;101526.44;6675274;26;35622;-78
2022/01/14 05:59:23;;;;;;;26.37;12.57;;;;;;;1.22;92.48;101528.56;6674927;26;33789;-80
2022/01/14 06:02:27;;;;;;;25.12;12.30;;;;;;;1.21;92.75;101520.72;6671231;26;34136;-80
2022/01/14 06:05:30;;;;;;;24.55;13.23;;;;;;;1.16;92.99;101520.12;6662631;26;33441;-79
2022/01/14 06:08:32;;;;;;;25.65;13.23;;;;;;;1.16;92.84;101525.44;6664344;26;34090;-78
2022/01/14 06:11:35;;;;;;;24.80;12.65;;;;;;;1.16;92.72;101512.16;6665444;26;33793;-80
2022/01/14 06:14:38;;;;;;;22.30;11.93;;;;;;;1.12;92.89;101520.31;6662876;26;33520;-82
2022/01/14 06:17:41;;;;;;;26.08;12.40;;;;;;;1.08;93.06;101521.44;6663138;26;33444;-85
2022/01/14 06:20:44;;;;;;;24.33;12.32;;;;;;;1.06;92.92;101517.16;6663005;26;33951;-82
2022/01/14 06:23:46;;;;;;;24.83;12.55;;;;;;;1.04;92.83;101513.72;6671869;26;34912;-83
2022/01/14 06:26:57;;;;;;;23.55;12.05;;;;;;;1.11;92.51;101500.03;6670696;26;33785;-79
2022/01/14 06:30:01;;;;;;;23.77;12.37;;;;;;;1.11;92.17;101494.75;6662525;26;33313;-80
2022/01/14 06:33:05;;;;;;;24.45;12.02;;;;;;;1.15;91.75;101500.72;6663182;26;34385;-79
2022/01/14 06:39:30;;;;;;;22.95;11.23;;;;;;;1.16;91.60;101497.09;6664123;26;33224;-81
2022/01/14 06:42:33;;;;;;;25.42;11.55;;;;;;;1.13;92.05;101492.81;6669587;26;33868;-81
2022/01/14 06:45:36;;;;;;;21.08;10.77;;;;;;;1.22;91.43;101496.75;6661989;26;33449;-81
2022/01/14 06:48:40;;;;;;;22.98;10.85;;;;;;;1.32;90.99;101499.72;6664557;26;34953;-81
2022/01/14 06:51:43;;;;;;;22.80;11.85;;;;;;;1.28;91.06;101495.53;6663961;26;33409;-81
2022/01/14 06:54:47;;;;;;;24.12;12.73;;;;;;;1.23;91.31;101498.47;6667644;26;33908;-80
2022/01/14 06:57:50;;;;;;;22.37;11.23;;;;;;;1.31;91.22;101493.53;6667050;26;33313;-81
2022/01/14 07:00:53;;;;;;;20.62;10.85;;;;;;;1.35;91.01;101502.19;6663397;26;33120;-81
2022/01/14 07:03:56;;;;;;;25.85;11.57;;;;;;;1.61;90.08;101498.00;6663679;26;33669;-81
2022/01/14 07:06:59;;;;;;;22.70;10.95;;;;;;;1.59;90.27;101498.06;6663509;26;34038;-81
2022/01/14 07:10:04;;;;;;;21.10;10.50;;;;;;;1.64;90.10;101478.34;6663466;26;33521;-80
2022/01/14 07:13:07;;;;;;;20.40;10.35;;;;;;;1.82;89.54;101477.25;6666617;26;34110;-81
2022/01/14 07:16:10;;;;;;;21.20;11.12;;;;;;;2.00;88.85;101472.59;6670476;26;33524;-81
2022/01/14 07:19:15;;;;;;;21.33;10.80;;;;;;;2.22;87.54;101480.03;6664165;26;34327;-81
2022/01/14 07:22:19;;;;;;;20.12;10.45;;;;;;;2.25;86.95;101475.41;6661877;26;32998;-81
2022/01/14 07:25:22;;;;;;;21.52;10.55;;;;;;;2.29;86.81;101472.56;6663325;26;34582;-81
2022/01/14 07:28:25;;;;;;;20.80;9.95;;;;;;;2.42;86.02;101476.97;6663020;26;33755;-81
2022/01/14 07:31:28;;;;;;;20.73;11.12;;;;;;;2.51;85.57;101472.88;6664521;26;33589;-80
2022/01/14 07:34:31;;;;;;;21.80;10.23;;;;;;;2.66;84.85;101465.72;6663155;26;34417;-81
2022/01/14 07:37:34;;;;;;;17.52;9.32;;;;;;;2.84;84.26;101476.97;6663091;26;33604;-80
2022/01/14 07:40:38;;;;;;;15.40;8.63;;;;;;;2.95;83.92;101464.69;6665260;26;33530;-80
2022/01/14 07:43:46;;;;;;;21.20;8.77;;;;;;;3.09;83.30;101468.19;6668033;26;33835;-81
2022/01/14 07:46:49;;;;;;;16.65;9.07;;;;;;;3.20;82.53;101465.69;6663288;26;33629;-80
2022/01/14 07:49:53;;;;;;;17.98;9.40;;;;;;;3.37;81.72;101467.22;6674686;26;34687;-80
2022/01/14 07:52:55;;;;;;;19.33;9.25;;;;;;;3.90;79.43;101464.44;6679825;26;34322;-81
2022/01/14 07:55:59;;;;;;;16.55;9.15;;;;;;;4.22;77.26;101465.66;6663292;26;33744;-81
2022/01/14 07:59:04;;;;;;;18.73;8.63;;;;;;;4.40;76.29;101470.63;6662620;26;33476;-80
2022/01/14 08:02:07;;;;;;;18.45;8.93;;;;;;;4.21;76.89;101455.97;6663144;26;33799;-80
2022/01/14 08:05:10;;;;;;;17.33;8.00;;;;;;;4.13;77.20;101469.00;6642294;26;33463;-80
2022/01/14 08:08:14;;;;;;;19.55;9.10;;;;;;;4.04;77.72;101475.00;6662756;26;33661;-83
2022/01/14 08:11:17;;;;;;;19.40;9.77;;;;;;;4.12;77.47;101475.28;6662457;26;34284;-84
2022/01/14 08:14:20;;;;;;;19.08;9.40;;;;;;;4.03;77.31;101466.12;6661960;26;33768;-84
2022/01/14 08:17:23;;;;;;;19.73;9.77;;;;;;;4.05;77.31;101469.53;6661615;26;34154;-84
2022/01/14 08:20:26;;;;;;;17.60;9.00;;;;;;;4.16;76.98;101479.44;6662421;26;33746;-82
2022/01/14 08:23:30;;;;;;;19.15;8.93;;;;;;;4.43;75.55;101476.59;6662811;26;34176;-82
2022/01/14 08:26:32;;;;;;;18.23;8.05;;;;;;;4.63;74.76;101464.47;6662232;26;33930;-81
2022/01/14 08:29:35;;;;;;;18.10;9.20;;;;;;;4.67;74.65;101451.75;6662258;26;34263;-82
2022/01/14 08:32:38;;;;;;;17.90;8.88;;;;;;;4.65;74.50;101451.91;6675593;26;33136;-82
2022/01/14 08:35:41;;;;;;;16.48;8.82;;;;;;;4.68;74.48;101438.31;6671393;26;34483;-83
2022/01/14 08:38:44;;;;;;;19.10;9.18;;;;;;;4.78;74.07;101423.31;6663012;26;33942;-81
2022/01/14 08:41:47;;;;;;;17.00;8.82;;;;;;;4.63;74.67;101429.81;6661336;26;33959;-82
2022/01/14 08:44:50;;;;;;;17.77;8.98;;;;;;;4.84;74.02;101418.50;6662375;26;33209;-81
2022/01/14 08:47:54;;;;;;;19.55;8.60;;;;;;;4.90;73.65;101418.03;6661594;26;33602;-81
2022/01/14 08:50:58;;;;;;;17.10;8.18;;;;;;;4.84;73.37;101416.69;6641870;26;33285;-81
2022/01/14 08:54:03;;;;;;;16.58;7.80;;;;;;;4.87;74.31;101418.28;6661744;26;33009;-81
2022/01/14 08:57:06;;;;;;;14.60;8.05;;;;;;;5.13;72.93;101413.63;6664849;26;33693;-81
2022/01/14 09:00:10;;;;;;;16.98;8.52;;;;;;;5.23;71.94;101398.59;6662180;26;34245;-82
2022/01/14 09:03:13;;;;;;;17.65;8.23;;;;;;;5.17;71.93;101388.38;6661853;26;33977;-82
2022/01/14 09:06:16;;;;;;;15.40;7.82;;;;;;;5.20;71.72;101388.16;6662640;26;33584;-82
2022/01/14 09:09:19;;;;;;;15.50;7.25;;;;;;;5.30;71.27;101391.81;6662738;26;33805;-82
2022/01/14 09:12:22;;;;;;;18.80;8.23;;;;;;;5.32;71.36;101381.84;6662465;26;34738;-82
2022/01/14 09:15:25;;;;;;;17.30;7.55;;;;;;;5.22;71.36;101368.38;6661781;26;33717;-81
2022/01/14 09:18:28;;;;;;;16.37;7.12;;;;;;;5.29;71.29;101366.06;6670305;26;33503;-81
2022/01/14 09:21:31;;;;;;;17.20;7.57;;;;;;;5.42;70.76;101366.84;6677815;26;34996;-80
2022/01/14 09:24:35;;;;;;;13.40;7.43;;;;;;;5.45;70.38;101352.41;6668667;26;33622;-81
2022/01/14 09:27:38;;;;;;;13.55;6.65;;;;;;;5.52;70.27;101358.09;6666778;26;34583;-83
2022/01/14 09:30:41;;;;;;;16.10;6.87;;;;;;;5.53;69.89;101354.44;6665231;26;34527;-81
2022/01/14 09:33:43;;;;;;;14.82;7.80;;;;;;;5.58;69.71;101363.78;6662048;26;33816;-82
2022/01/14 09:36:46;;;;;;;14.50;6.97;;;;;;;5.64;69.11;101357.97;6664239;26;33548;-81
2022/01/14 09:39:49;;;;;;;14.15;7.57;;;;;;;5.76;68.68;101357.97;6673462;26;34129;-81
2022/01/14 09:42:52;;;;;;;14.05;7.65;;;;;;;5.79;68.19;101369.28;6661869;26;34638;-81
2022/01/14 09:45:54;;;;;;;15.98;7.95;;;;;;;5.59;68.84;101375.34;6662490;26;33522;-81
2022/01/14 09:48:57;;;;;;;14.63;7.75;;;;;;;5.62;69.18;101362.59;6664036;26;35031;-81
2022/01/14 09:52:00;;;;;;;14.73;7.62;;;;;;;5.75;68.60;101348.25;6664134;26;33543;-82
2022/01/14 09:55:04;;;;;;;17.23;8.13;;;;;;;5.93;67.91;101349.47;6665841;26;33889;-82
2022/01/14 09:58:07;;;;;;;12.73;7.18;;;;;;;5.95;67.50;101347.53;6669108;26;33765;-82
2022/01/14 10:01:16;;;;;;;12.15;7.25;;;;;;;6.05;66.82;101345.81;6675500;26;33654;-81
2022/01/14 10:04:22;;;;;;;13.98;7.28;;;;;;;6.13;66.12;101345.19;6667040;26;34400;-82
2022/01/14 10:07:24;;;;;;;13.85;6.87;;;;;;;6.00;66.64;101339.16;6663736;26;33319;-82
2022/01/14 10:10:29;;;;;;;16.35;7.55;;;;;;;6.02;65.74;101307.78;6662956;26;33442;-81
2022/01/14 10:13:34;;;;;;;14.57;7.57;;;;;;;5.88;66.31;101319.59;6663065;26;33460;-82
2022/01/14 10:16:41;;;;;;;15.77;8.05;;;;;;;5.88;66.75;101324.94;6662524;26;33830;-82
2022/01/14 10:19:45;;;;;;;15.63;6.80;;;;;;;5.98;66.06;101312.53;6662255;26;34036;-82
2022/01/14 10:22:48;;;;;;;17.02;7.35;;;;;;;5.96;66.07;101317.16;6663794;26;33083;-81
2022/01/14 10:25:56;;;;;;;18.00;6.37;;;;;;;5.98;65.37;101293.84;6668368;26;33852;-81
2022/01/14 10:29:03;;;;;;;12.80;6.25;;;;;;;6.06;65.64;101274.50;6663625;26;34184;-81
2022/01/14 10:32:31;;;;;;;12.40;6.20;;;;;;;6.08;65.22;101293.91;6665671;26;33152;-81
2022/01/14 10:35:42;;;;;;;12.73;6.85;;;;;;;6.05;64.67;101305.72;6673936;26;33539;-82
2022/01/14 10:38:46;;;;;;;12.43;6.43;;;;;;;6.05;64.76;101305.72;6678195;26;34859;-81
2022/01/14 10:41:52;;;;;;;13.27;7.15;;;;;;;6.16;64.38;101286.12;6662945;26;33633;-81
2022/01/14 10:45:09;;;;;;;16.00;6.25;;;;;;;6.24;63.78;101286.34;6663044;26;33555;-81
2022/01/14 10:48:16;;;;;;;12.85;6.45;;;;;;;6.27;64.01;101290.59;6663068;26;33211;-82
2022/01/14 10:51:19;;;;;;;15.55;6.37;;;;;;;6.39;63.63;101286.03;6662793;26;33331;-82
2022/01/14 10:54:40;;;;;;;11.85;6.43;;;;;;;6.18;63.85;101283.34;6665225;26;33642;-82
2022/01/14 10:57:48;;;;;;;21.45;6.93;;;;;;;6.30;63.88;101272.47;6673761;26;33620;-82
2022/01/14 11:01:15;;;;;;;15.82;7.37;;;;;;;6.23;64.23;101292.69;6663252;26;33908;-82
2022/01/14 11:04:20;;;;;;;13.75;7.00;;;;;;;6.20;64.36;101276.88;6662882;26;33623;-81
2022/01/14 11:07:23;;;;;;;17.45;7.57;;;;;;;6.22;64.59;101264.22;6663131;26;33973;-82
2022/01/14 11:10:37;;;;;;;15.10;7.70;;;;;;;6.22;64.54;101261.53;6664038;26;33281;-82
2022/01/14 11:13:42;;;;;;;14.50;6.87;;;;;;;6.21;65.01;101267.03;6667352;26;34610;-86
2022/01/14 11:16:46;;;;;;;13.13;7.53;;;;;;;6.19;65.06;101263.63;6665848;26;34161;-82
2022/01/14 11:19:49;;;;;;;12.90;6.85;;;;;;;6.26;65.00;101257.66;6666705;26;33595;-83
2022/01/14 11:26:19;;;;;;;14.57;7.18;;;;;;;6.50;64.39;101257.41;6668333;26;33611;-82
2022/01/14 11:29:23;;;;;;;11.95;6.07;;;;;;;6.47;64.37;101243.47;6662667;26;34320;-81
2022/01/14 11:32:56;;;;;;;14.00;6.72;;;;;;;6.71;64.45;101246.69;6663425;26;34329;-82
2022/01/14 11:36:00;;;;;;;14.00;6.57;;;;;;;7.07;63.35;101238.28;6663690;26;34063;-82
2022/01/14 11:39:17;;;;;;;16.95;6.95;;;;;;;7.13;62.29;101240.44;6669740;26;34870;-82
2022/01/14 11:42:39;;;;;;;13.82;7.40;;;;;;;7.16;62.35;101214.22;6661294;26;33547;-80
2022/01/14 11:45:45;;;;;;;14.65;6.60;;;;;;;7.24;62.27;101208.22;6661198;26;34936;-81
2022/01/14 11:48:50;;;;;;;12.35;7.37;;;;;;;7.53;61.35;101200.25;6662557;26;33243;-81
2022/01/14 11:51:58;;;;;;;12.25;6.75;;;;;;;7.97;59.64;101191.84;6661460;26;34069;-81
2022/01/14 11:55:02;;;;;;;11.80;6.57;;;;;;;7.93;59.57;101197.50;6662555;26;34626;-81
2022/01/14 11:58:12;;;;;;;11.18;6.32;;;;;;;8.03;59.13;101208.22;6663117;26;33561;-81
2022/01/14 12:01:32;;;;;;;13.93;6.82;;;;;;;8.27;58.28;101189.00;6664484;26;33587;-81
2022/01/14 12:05:02;;;;;;;13.65;6.90;;;;;;;8.56;57.36;101180.09;6659885;26;33882;-82
2022/01/14 12:08:08;;;;;;;13.05;6.90;;;;;;;8.94;55.83;101186.31;6660845;26;34227;-82
2022/01/14 12:11:20;;;;;;;12.52;6.57;;;;;;;9.37;55.16;101187.53;6659378;26;33762;-82
2022/01/14 12:14:37;;;;;;;14.13;6.30;;;;;;;10.10;52.60;101168.63;6661612;26;33600;-81
2022/01/14 12:17:41;;;;;;;11.85;6.87;;;;;;;10.22;51.83;101167.38;6661604;26;34857;-82
2022/01/14 12:20:49;;;;;;;10.27;5.50;;;;;;;10.67;50.40;101153.72;6661355;26;34316;-82
2022/01/14 12:23:52;;;;;;;10.93;5.10;;;;;;;10.90;49.81;101147.81;6661907;26;34296;-82
2022/01/14 12:26:55;;;;;;;10.93;5.00;;;;;;;10.72;49.47;101137.09;6665952;26;34279;-82
2022/01/14 12:30:05;;;;;;;10.20;5.55;;;;;;;11.68;47.35;101150.25;6661758;26;33223;-82
2022/01/14 12:33:08;;;;;;;;;;;;;;;12.18;45.40;101145.75;6665914;26;33957;-81
2022/01/14 12:36:12;;;;;;;11.88;5.70;;;;;;;13.15;42.88;101158.19;6661282;26;33622;-82
2022/01/14 12:39:18;;;;;;;9.98;5.37;;;;;;;13.94;41.14;101160.81;6660650;26;33580;-82
2022/01/14 12:42:23;;;;;;;11.07;6.07;;;;;;;13.43;41.77;101138.81;6661786;26;33601;-82
2022/01/14 12:45:34;;;;;;;7.85;5.03;;;;;;;12.71;42.95;101165.94;6662873;26;33667;-82
2022/01/14 12:48:48;;;;;;;9.52;4.62;;;;;;;12.82;42.37;101153.94;6679676;26;34567;-82
2022/01/14 12:52:06;;;;;;;10.10;5.90;;;;;;;12.47;43.61;101158.72;6664771;26;34500;-82
2022/01/14 12:55:10;;;;;;;16.08;6.07;;;;;;;12.58;42.92;101147.56;6675807;26;33325;-82
2022/01/14 12:58:13;;;;;;;9.93;5.87;;;;;;;12.71;42.78;101137.06;6668663;26;34686;-86
2022/01/14 13:01:16;;;;;;;8.05;5.25;;;;;;;13.09;41.88;101129.16;6661609;26;33811;-86
2022/01/14 13:04:21;;;;;;;10.25;5.00;;;;;;;12.90;42.03;101137.69;6661380;26;33601;-86
2022/01/14 13:07:25;;;;;;;13.77;5.80;;;;;;;13.14;41.59;101134.03;6661257;26;34013;-82
2022/01/14 13:10:29;;;;;;;10.70;5.90;;;;;;;13.01;41.61;101118.37;6661059;26;32682;-82
2022/01/14 13:13:32;;;;;;;16.65;6.75;;;;;;;12.01;43.81;101121.47;6660620;26;34005;-82
2022/01/14 13:16:49;;;;;;;12.55;6.07;;;;;;;11.34;46.05;101115.28;6660737;26;33265;-82
2022/01/14 13:19:58;;;;;;;12.73;7.10;;;;;;;10.11;48.80;101120.00;6660200;26;34338;-82
2022/01/14 13:23:07;;;;;;;10.60;6.05;;;;;;;8.79;53.08;101125.03;6661571;26;33259;-81
2022/01/14 13:26:10;;;;;;;12.43;6.80;;;;;;;8.34;55.25;101125.75;6661551;26;33669;-82
2022/01/14 13:29:16;;;;;;;13.68;7.20;;;;;;;7.94;56.66;101124.09;6666744;26;33758;-82
2022/01/14 13:32:23;;;;;;;13.07;6.25;;;;;;;7.59;58.43;101115.78;6661991;26;34212;-82
2022/01/14 13:35:30;;;;;;;11.98;6.40;;;;;;;7.39;59.03;101120.28;6662222;26;33571;-82
2022/01/14 13:38:33;;;;;;;11.60;6.72;;;;;;;7.26;59.49;101089.25;6662005;26;33713;-82
2022/01/14 13:41:40;;;;;;;12.45;6.32;;;;;;;7.16;60.09;101103.59;6663400;26;33751;-82
2022/01/14 13:44:43;;;;;;;10.63;6.35;;;;;;;7.09;60.68;101102.47;6666863;26;33798;-81
2022/01/14 13:48:19;;;;;;;14.07;6.15;;;;;;;7.06;60.88;101108.09;6671031;26;34274;-81
2022/01/14 13:51:26;;;;;;;10.35;6.25;;;;;;;6.93;61.51;101101.16;6668820;26;33321;-81
2022/01/14 13:54:29;;;;;;;12.18;6.82;;;;;;;6.74;62.35;101101.09;6665320;26;33093;-80
2022/01/14 13:57:32;;;;;;;10.43;6.10;;;;;;;6.72;62.86;101111.06;6668260;26;33619;-82
2022/01/14 14:00:36;;;;;;;12.77;6.20;;;;;;;6.64;63.05;101111.75;6665566;26;35174;-82
2022/01/14 14:03:53;;;;;;;14.02;6.65;;;;;;;6.59;63.28;101112.16;6662995;26;33689;-82
2022/01/14 14:07:07;;;;;;;12.77;6.37;;;;;;;6.56;63.46;101107.06;6663047;26;33516;-86
2022/01/14 14:10:32;;;;;;;12.45;6.28;;;;;;;6.49;63.55;101129.13;6663186;26;33552;-83
2022/01/14 14:16:58;;;;;;;11.38;5.90;;;;;;;6.39;63.82;101125.56;6662175;26;34604;-81
2022/01/14 14:20:01;;;;;;;14.73;6.85;;;;;;;6.32;64.03;101125.25;6677795;26;33794;-81
2022/01/14 14:23:13;;;;;;;10.18;5.87;;;;;;;6.26;64.72;101123.09;6676510;26;34808;-82
2022/01/14 14:26:31;;;;;;;11.27;6.18;;;;;;;6.20;64.87;101118.25;6662097;26;33441;-82
2022/01/14 14:29:34;;;;;;;12.32;6.68;;;;;;;6.17;65.26;101110.50;6661801;26;33213;-82
2022/01/14 14:32:37;;;;;;;11.48;6.20;;;;;;;6.17;65.86;101118.53;6661835;26;33054;-82
2022/01/14 14:35:41;;;;;;;11.75;6.15;;;;;;;6.08;65.63;101104.13;6662408;26;34114;-82
2022/01/14 14:38:45;;;;;;;13.20;6.85;;;;;;;6.10;65.83;101111.03;6663287;26;34102;-82
2022/01/14 14:42:01;;;;;;;12.18;6.47;;;;;;;6.06;66.03;101114.97;6662845;26;35030;-82
2022/01/14 14:45:06;;;;;;;14.73;6.68;;;;;;;6.07;66.27;101118.47;6666392;26;33746;-81
2022/01/14 14:48:09;;;;;;;15.27;7.78;;;;;;;6.04;66.53;101111.56;6667615;26;33880;-82
2022/01/14 14:51:12;;;;;;;12.15;6.32;;;;;;;5.95;66.63;101120.38;6663552;26;33675;-82
2022/01/14 14:54:15;;;;;;;13.95;6.95;;;;;;;5.92;66.71;101117.91;6662232;26;33491;-82
2022/01/14 14:57:17;;;;;;;11.82;6.40;;;;;;;5.91;66.98;101122.41;6662855;26;33794;-82
2022/01/14 15:00:23;;;;;;;14.60;6.53;;;;;;;5.88;67.31;101113.81;6663129;26;33180;-82
2022/01/14 15:03:26;;;;;;;13.50;6.50;;;;;;;5.76;67.69;101122.84;6662408;26;34800;-82
2022/01/14 15:06:33;;;;;;;12.00;6.35;;;;;;;5.67;68.30;101122.66;6662081;26;33744;-81
2022/01/14 15:09:37;;;;;;;13.88;7.62;;;;;;;5.73;68.21;101118.59;6662417;26;33602;-81
2022/01/14 15:12:41;;;;;;;12.93;6.35;;;;;;;5.67;68.55;101117.31;6662167;26;34443;-84
2022/01/14 15:18:47;;;;;;;10.40;6.30;;;;;;;5.59;69.43;101114.44;6662963;26;34170;-82
2022/01/14 15:21:50;;;;;;;11.73;6.37;;;;;;;5.63;69.26;101110.50;6642630;26;34084;-82
2022/01/14 15:24:52;;;;;;;14.60;7.00;;;;;;;5.63;69.31;101115.84;6663570;26;33902;-81
2022/01/14 15:27:56;;;;;;;11.25;6.25;;;;;;;5.65;69.25;101107.72;6663125;26;33269;-81
2022/01/14 15:31:02;;;;;;;10.65;5.72;;;;;;;5.59;69.62;101098.41;6666246;26;33456;-81
2022/01/14 15:34:07;;;;;;;11.50;6.40;;;;;;;5.64;69.71;101101.50;6672180;26;33374;-81
2022/01/14 15:37:10;;;;;;;11.70;5.93;;;;;;;5.58;69.89;101104.69;6675125;26;33590;-80
2022/01/14 15:40:16;;;;;;;14.32;6.95;;;;;;;5.57;69.95;101107.50;6662656;26;35042;-80
2022/01/14 15:43:19;;;;;;;11.60;6.80;;;;;;;5.54;70.47;101100.59;6663439;26;34529;-82
2022/01/14 15:46:22;;;;;;;12.68;6.40;;;;;;;5.42;71.10;101102.47;6663113;26;33822;-81
2022/01/14 15:49:25;;;;;;;14.82;6.18;;;;;;;5.48;70.48;101087.75;6663121;26;33807;-81
2022/01/14 15:52:28;;;;;;;13.10;6.47;;;;;;;5.41;71.23;101089.22;6663576;26;33046;-80
2022/01/14 15:55:31;;;;;;;11.12;6.45;;;;;;;5.46;71.02;101085.19;6664148;26;34759;-80
2022/01/14 15:58:34;;;;;;;11.43;6.30;;;;;;;5.37;71.33;101079.78;6664931;26;34245;-80
2022/01/14 16:01:38;;;;;;;11.60;6.45;;;;;;;5.38;71.24;101087.69;6662055;26;33252;-80
2022/01/14 16:04:40;;;;;;;12.85;7.00;;;;;;;5.24;72.23;101079.97;6662451;26;33166;-80
2022/01/14 16:07:43;;;;;;;10.10;6.55;;;;;;;5.32;72.05;101073.97;6663200;26;34109;-81
2022/01/14 16:10:46;;;;;;;14.98;7.05;;;;;;;5.23;72.21;101071.09;6668962;26;34356;-81
2022/01/14 16:13:54;;;;;;;13.57;7.03;;;;;;;5.19;72.30;101072.31;6666316;26;33942;-81
2022/01/14 16:16:57;;;;;;;14.45;7.57;;;;;;;5.15;72.89;101062.03;6662128;26;33216;-81
2022/01/14 16:19:59;;;;;;;12.90;6.50;;;;;;;5.14;73.43;101054.97;6662635;26;33300;-81
2022/01/14 16:23:02;;;;;;;16.80;7.25;;;;;;;5.14;73.24;101047.81;6662135;26;34274;-80
2022/01/14 16:26:05;;;;;;;13.32;7.65;;;;;;;5.28;72.90;101051.19;6662502;26;33735;-81
2022/01/14 16:29:08;;;;;;;14.10;7.53;;;;;;;5.26;72.98;101043.28;6662499;26;34438;-81
2022/01/14 16:32:12;;;;;;;14.07;7.65;;;;;;;5.24;72.85;101039.91;6663314;26;33694;-80
2022/01/14 16:35:15;;;;;;;13.65;7.00;;;;;;;5.22;72.62;101048.03;6663642;26;33737;-81
2022/01/14 16:38:18;;;;;;;13.62;7.10;;;;;;;5.29;72.16;101048.38;6673003;26;33392;-81
2022/01/14 16:41:21;;;;;;;15.90;7.50;;;;;;;5.26;72.21;101045.12;6668591;26;31999;-81
2022/01/14 16:44:24;;;;;;;15.40;7.18;;;;;;;5.20;72.14;101044.63;6661522;26;34427;-81
2022/01/14 16:47:27;;;;;;;15.65;7.47;;;;;;;5.13;72.61;101031.94;6662021;26;33543;-81
2022/01/14 16:50:30;;;;;;;13.75;7.55;;;;;;;5.08;72.51;101059.00;6661731;26;33196;-80
2022/01/14 16:53:32;;;;;;;14.80;7.93;;;;;;;5.07;72.66;101054.66;6662205;26;33526;-81
2022/01/14 16:56:35;;;;;;;15.15;8.07;;;;;;;5.04;72.66;101041.56;6661586;26;33643;-80
